Weather at Lost Dutchman Heliport [CLOSED]

Public forecast

Using degrees Fahrenheit for public forecast. Weather courtesy of forecast.io.

Closest aviation weather report (METAR) to Lost Dutchman Heliport

Closest report is Phoenix-Mesa-Gateway Airport, 9.0 nm (16.7 km) SW. Retrieved 2021/06/20 10:15 UTC (4 minutes ago):

KIWA 201015Z AUTO 11006KT 10SM 31/08 A2968 RMK AO2 T03080083

Closest aviation forecast (TAF) to Lost Dutchman Heliport

Closest forecast is Phoenix-Mesa-Gateway Airport, 9.0 nm (16.7 km) SW. Retrieved 2021/06/20 06:24 UTC (4 hours ago):

TAF KIWA 200522Z 2006/2106 26007KT P6SM SKC FM200800 11006KT P6SM SKC FM201700 22010KT P6SM FEW150 FEW250 FM201900 26015G23KT P6SM SKC FM210400 25012KT P6SM SKC AMD LTD TO CLD VIS AND WIND TIL 201200